Masterson, Texas
Current Conditions -  °F | °C
As of 11:53 PM on Tuesday 25 Nov 2014 (Local Time) from KAMA Reporting Station
Clear Clear  
Wind Chill: 35°   Ceiling: Unl
Heat Index: 41°   Visibility: 10mi
Dew Point: 19°   Wind: 10mph
Humidity: 41%   Direction: 270°W
Pressure: 30.01"   Gusts: NA
Location:  35.64°N, 101.96°W
Report Text: KAMA 260553Z 27009KT 10SM CLR 05/M07 A3001 RMK AO2 SLP153 T00501072 10094 20028 401221039 51008
Loading
Personal Weather Stations






























Interactive Weather Map New forecast layout! Learn more

10-Day Weather Forecast

Advertisements
Track Severe Weather on mobile